sensor_id;sensor_type;location;lat;lon;timestamp;temperature;humidity
9837;DHT22;4957;51.412;6.724;2023-05-28T00:00:33;18.70;49.80
9837;DHT22;4957;51.412;6.724;2023-05-28T00:02:58;18.70;49.90
9837;DHT22;4957;51.412;6.724;2023-05-28T00:05:25;18.70;49.90
9837;DHT22;4957;51.412;6.724;2023-05-28T00:07:50;18.60;50.10
9837;DHT22;4957;51.412;6.724;2023-05-28T00:10:16;18.50;50.30
9837;DHT22;4957;51.412;6.724;2023-05-28T00:12:42;18.40;50.60
9837;DHT22;4957;51.412;6.724;2023-05-28T00:15:08;18.40;50.80
9837;DHT22;4957;51.412;6.724;2023-05-28T00:17:35;18.30;50.90
9837;DHT22;4957;51.412;6.724;2023-05-28T00:20:00;18.20;51.10
9837;DHT22;4957;51.412;6.724;2023-05-28T00:22:26;18.20;51.10
9837;DHT22;4957;51.412;6.724;2023-05-28T00:24:52;18.10;51.80
9837;DHT22;4957;51.412;6.724;2023-05-28T00:27:17;18.10;51.80
9837;DHT22;4957;51.412;6.724;2023-05-28T00:29:43;18.10;51.90
9837;DHT22;4957;51.412;6.724;2023-05-28T00:32:09;18.00;51.90
9837;DHT22;4957;51.412;6.724;2023-05-28T00:34:34;18.00;52.10
9837;DHT22;4957;51.412;6.724;2023-05-28T00:37:00;17.90;52.00
9837;DHT22;4957;51.412;6.724;2023-05-28T00:39:26;17.90;52.00
9837;DHT22;4957;51.412;6.724;2023-05-28T00:42:02;17.90;52.00
9837;DHT22;4957;51.412;6.724;2023-05-28T00:44:29;17.90;52.60
9837;DHT22;4957;51.412;6.724;2023-05-28T00:46:56;17.90;52.20
9837;DHT22;4957;51.412;6.724;2023-05-28T00:49:23;17.90;52.00
9837;DHT22;4957;51.412;6.724;2023-05-28T00:51:49;17.80;52.20
9837;DHT22;4957;51.412;6.724;2023-05-28T00:54:15;17.90;52.00
9837;DHT22;4957;51.412;6.724;2023-05-28T00:56:41;17.80;52.00
9837;DHT22;4957;51.412;6.724;2023-05-28T00:59:10;17.80;51.90
9837;DHT22;4957;51.412;6.724;2023-05-28T01:01:36;17.70;51.90
9837;DHT22;4957;51.412;6.724;2023-05-28T01:04:02;17.70;52.20
9837;DHT22;4957;51.412;6.724;2023-05-28T01:06:29;17.70;52.30
9837;DHT22;4957;51.412;6.724;2023-05-28T01:08:55;17.60;52.20
9837;DHT22;4957;51.412;6.724;2023-05-28T01:11:22;17.50;52.30
9837;DHT22;4957;51.412;6.724;2023-05-28T01:13:49;17.50;52.40
9837;DHT22;4957;51.412;6.724;2023-05-28T01:16:15;17.40;52.60
9837;DHT22;4957;51.412;6.724;2023-05-28T01:18:42;17.40;52.60
9837;DHT22;4957;51.412;6.724;2023-05-28T01:21:10;17.30;52.70
9837;DHT22;4957;51.412;6.724;2023-05-28T01:23:46;17.30;53.20
9837;DHT22;4957;51.412;6.724;2023-05-28T01:26:14;17.20;53.50
9837;DHT22;4957;51.412;6.724;2023-05-28T01:28:44;17.20;53.60
9837;DHT22;4957;51.412;6.724;2023-05-28T01:31:11;17.10;53.80
9837;DHT22;4957;51.412;6.724;2023-05-28T01:33:38;17.10;53.80
9837;DHT22;4957;51.412;6.724;2023-05-28T01:36:15;17.00;53.80
9837;DHT22;4957;51.412;6.724;2023-05-28T01:38:42;17.00;54.70
9837;DHT22;4957;51.412;6.724;2023-05-28T01:41:11;16.90;54.10
9837;DHT22;4957;51.412;6.724;2023-05-28T01:43:37;16.90;54.40
9837;DHT22;4957;51.412;6.724;2023-05-28T01:46:03;16.90;54.40
9837;DHT22;4957;51.412;6.724;2023-05-28T01:48:29;16.80;54.30
9837;DHT22;4957;51.412;6.724;2023-05-28T01:50:55;16.80;54.70
9837;DHT22;4957;51.412;6.724;2023-05-28T01:53:21;16.70;54.80
9837;DHT22;4957;51.412;6.724;2023-05-28T01:55:46;16.70;54.80
9837;DHT22;4957;51.412;6.724;2023-05-28T01:58:12;16.70;55.20
9837;DHT22;4957;51.412;6.724;2023-05-28T02:00:43;16.70;55.90
9837;DHT22;4957;51.412;6.724;2023-05-28T02:03:10;16.60;55.70
9837;DHT22;4957;51.412;6.724;2023-05-28T02:05:37;16.60;55.20
9837;DHT22;4957;51.412;6.724;2023-05-28T02:08:03;16.50;55.30
9837;DHT22;4957;51.412;6.724;2023-05-28T02:10:29;16.50;55.20
9837;DHT22;4957;51.412;6.724;2023-05-28T02:12:55;16.40;55.60
9837;DHT22;4957;51.412;6.724;2023-05-28T02:15:21;16.30;56.20
9837;DHT22;4957;51.412;6.724;2023-05-28T02:17:47;16.30;55.80
9837;DHT22;4957;51.412;6.724;2023-05-28T02:20:12;16.30;56.20
9837;DHT22;4957;51.412;6.724;2023-05-28T02:22:38;16.30;56.30
9837;DHT22;4957;51.412;6.724;2023-05-28T02:25:04;16.20;56.70
9837;DHT22;4957;51.412;6.724;2023-05-28T02:27:30;16.20;57.00
9837;DHT22;4957;51.412;6.724;2023-05-28T02:29:57;16.20;57.10
9837;DHT22;4957;51.412;6.724;2023-05-28T02:32:23;16.10;56.80
9837;DHT22;4957;51.412;6.724;2023-05-28T02:34:48;16.10;56.80
9837;DHT22;4957;51.412;6.724;2023-05-28T02:37:15;16.00;57.00
9837;DHT22;4957;51.412;6.724;2023-05-28T02:39:40;16.00;57.60
9837;DHT22;4957;51.412;6.724;2023-05-28T02:42:06;16.00;57.90
9837;DHT22;4957;51.412;6.724;2023-05-28T02:44:33;15.90;57.80
9837;DHT22;4957;51.412;6.724;2023-05-28T02:46:58;15.80;58.10
9837;DHT22;4957;51.412;6.724;2023-05-28T02:49:24;15.90;58.60
9837;DHT22;4957;51.412;6.724;2023-05-28T02:51:50;15.80;58.90
9837;DHT22;4957;51.412;6.724;2023-05-28T02:54:15;15.80;59.50
9837;DHT22;4957;51.412;6.724;2023-05-28T02:56:41;15.80;59.70
9837;DHT22;4957;51.412;6.724;2023-05-28T02:59:07;15.80;59.90
9837;DHT22;4957;51.412;6.724;2023-05-28T03:01:32;15.80;60.70
9837;DHT22;4957;51.412;6.724;2023-05-28T03:03:58;15.80;59.90
9837;DHT22;4957;51.412;6.724;2023-05-28T03:06:24;15.80;59.80
9837;DHT22;4957;51.412;6.724;2023-05-28T03:08:49;15.70;59.80
9837;DHT22;4957;51.412;6.724;2023-05-28T03:11:15;15.60;59.80
9837;DHT22;4957;51.412;6.724;2023-05-28T03:13:41;15.60;60.00
9837;DHT22;4957;51.412;6.724;2023-05-28T03:16:06;15.50;60.70
9837;DHT22;4957;51.412;6.724;2023-05-28T03:18:32;15.50;60.80
9837;DHT22;4957;51.412;6.724;2023-05-28T03:20:58;15.40;61.60
9837;DHT22;4957;51.412;6.724;2023-05-28T03:23:23;15.40;61.40
9837;DHT22;4957;51.412;6.724;2023-05-28T03:25:49;15.30;62.00
9837;DHT22;4957;51.412;6.724;2023-05-28T03:28:15;15.30;62.40
9837;DHT22;4957;51.412;6.724;2023-05-28T03:30:41;15.30;62.90
9837;DHT22;4957;51.412;6.724;2023-05-28T03:33:07;15.30;63.00
9837;DHT22;4957;51.412;6.724;2023-05-28T03:35:33;15.30;62.60
9837;DHT22;4957;51.412;6.724;2023-05-28T03:37:58;15.20;63.40
9837;DHT22;4957;51.412;6.724;2023-05-28T03:40:24;15.10;63.50
9837;DHT22;4957;51.412;6.724;2023-05-28T03:42:49;15.10;63.70
9837;DHT22;4957;51.412;6.724;2023-05-28T03:45:15;15.10;64.60
9837;DHT22;4957;51.412;6.724;2023-05-28T03:47:42;15.10;65.30
9837;DHT22;4957;51.412;6.724;2023-05-28T03:50:07;15.00;65.20
9837;DHT22;4957;51.412;6.724;2023-05-28T03:52:33;15.00;65.70
9837;DHT22;4957;51.412;6.724;2023-05-28T03:54:59;14.90;66.40
9837;DHT22;4957;51.412;6.724;2023-05-28T03:57:25;14.90;67.30
9837;DHT22;4957;51.412;6.724;2023-05-28T03:59:51;14.80;68.00
9837;DHT22;4957;51.412;6.724;2023-05-28T04:02:17;14.80;68.70
9837;DHT22;4957;51.412;6.724;2023-05-28T04:04:42;14.70;68.80
9837;DHT22;4957;51.412;6.724;2023-05-28T04:07:08;14.80;68.90
9837;DHT22;4957;51.412;6.724;2023-05-28T04:09:34;14.80;68.90
9837;DHT22;4957;51.412;6.724;2023-05-28T04:11:59;14.80;69.00
9837;DHT22;4957;51.412;6.724;2023-05-28T04:14:26;14.80;69.50
9837;DHT22;4957;51.412;6.724;2023-05-28T04:16:52;14.80;69.80
9837;DHT22;4957;51.412;6.724;2023-05-28T04:19:19;14.80;70.60
9837;DHT22;4957;51.412;6.724;2023-05-28T04:21:45;14.80;70.60
9837;DHT22;4957;51.412;6.724;2023-05-28T04:24:11;14.90;70.10
9837;DHT22;4957;51.412;6.724;2023-05-28T04:26:36;14.90;70.50
9837;DHT22;4957;51.412;6.724;2023-05-28T04:29:02;14.80;70.90
9837;DHT22;4957;51.412;6.724;2023-05-28T04:31:28;14.90;70.80
9837;DHT22;4957;51.412;6.724;2023-05-28T04:33:54;14.80;71.10
9837;DHT22;4957;51.412;6.724;2023-05-28T04:36:20;14.80;71.10
9837;DHT22;4957;51.412;6.724;2023-05-28T04:38:46;14.80;72.00
9837;DHT22;4957;51.412;6.724;2023-05-28T04:41:12;14.80;72.10
9837;DHT22;4957;51.412;6.724;2023-05-28T04:43:40;14.80;72.30
9837;DHT22;4957;51.412;6.724;2023-05-28T04:46:07;14.80;73.30
9837;DHT22;4957;51.412;6.724;2023-05-28T04:48:34;14.80;73.60
9837;DHT22;4957;51.412;6.724;2023-05-28T04:51:03;14.80;75.10
9837;DHT22;4957;51.412;6.724;2023-05-28T04:53:31;14.70;75.80
9837;DHT22;4957;51.412;6.724;2023-05-28T04:55:57;14.70;76.90
9837;DHT22;4957;51.412;6.724;2023-05-28T04:58:22;14.70;78.00
9837;DHT22;4957;51.412;6.724;2023-05-28T05:00:48;14.80;80.00
9837;DHT22;4957;51.412;6.724;2023-05-28T05:03:14;14.90;80.50
9837;DHT22;4957;51.412;6.724;2023-05-28T05:05:40;14.90;81.20
9837;DHT22;4957;51.412;6.724;2023-05-28T05:08:06;14.90;81.60
9837;DHT22;4957;51.412;6.724;2023-05-28T05:10:32;15.00;82.20
9837;DHT22;4957;51.412;6.724;2023-05-28T05:12:58;15.10;82.70
9837;DHT22;4957;51.412;6.724;2023-05-28T05:15:25;15.10;82.60
9837;DHT22;4957;51.412;6.724;2023-05-28T05:17:51;15.20;82.40
9837;DHT22;4957;51.412;6.724;2023-05-28T05:20:18;15.20;83.30
9837;DHT22;4957;51.412;6.724;2023-05-28T05:22:43;15.30;82.80
9837;DHT22;4957;51.412;6.724;2023-05-28T05:25:09;15.40;83.00
9837;DHT22;4957;51.412;6.724;2023-05-28T05:27:35;15.40;83.00
9837;DHT22;4957;51.412;6.724;2023-05-28T05:30:03;15.50;83.30
9837;DHT22;4957;51.412;6.724;2023-05-28T05:32:28;15.60;84.10
9837;DHT22;4957;51.412;6.724;2023-05-28T05:34:54;15.70;83.90
9837;DHT22;4957;51.412;6.724;2023-05-28T05:37:20;15.80;84.00
9837;DHT22;4957;51.412;6.724;2023-05-28T05:39:46;15.90;83.10
9837;DHT22;4957;51.412;6.724;2023-05-28T05:42:11;16.00;83.00
9837;DHT22;4957;51.412;6.724;2023-05-28T05:44:37;16.10;83.70
9837;DHT22;4957;51.412;6.724;2023-05-28T05:47:03;16.20;83.20
9837;DHT22;4957;51.412;6.724;2023-05-28T05:49:29;16.30;83.20
9837;DHT22;4957;51.412;6.724;2023-05-28T05:51:54;16.40;83.00
9837;DHT22;4957;51.412;6.724;2023-05-28T05:54:20;16.60;81.90
9837;DHT22;4957;51.412;6.724;2023-05-28T05:56:46;16.70;82.10
9837;DHT22;4957;51.412;6.724;2023-05-28T05:59:12;16.80;82.10
9837;DHT22;4957;51.412;6.724;2023-05-28T06:01:37;16.90;82.50
9837;DHT22;4957;51.412;6.724;2023-05-28T06:04:03;17.10;81.80
9837;DHT22;4957;51.412;6.724;2023-05-28T06:06:29;17.20;81.30
9837;DHT22;4957;51.412;6.724;2023-05-28T06:08:55;17.30;80.90
9837;DHT22;4957;51.412;6.724;2023-05-28T06:11:21;17.50;81.00
9837;DHT22;4957;51.412;6.724;2023-05-28T06:13:48;17.60;80.20
9837;DHT22;4957;51.412;6.724;2023-05-28T06:16:15;17.80;79.60
9837;DHT22;4957;51.412;6.724;2023-05-28T06:18:40;17.90;79.40
9837;DHT22;4957;51.412;6.724;2023-05-28T06:21:06;18.10;79.00
9837;DHT22;4957;51.412;6.724;2023-05-28T06:23:33;18.20;78.20
9837;DHT22;4957;51.412;6.724;2023-05-28T06:25:59;18.40;78.00
9837;DHT22;4957;51.412;6.724;2023-05-28T06:28:25;18.50;77.50
9837;DHT22;4957;51.412;6.724;2023-05-28T06:30:51;18.70;77.20
9837;DHT22;4957;51.412;6.724;2023-05-28T06:33:16;18.80;76.60
9837;DHT22;4957;51.412;6.724;2023-05-28T06:35:42;19.00;75.60
9837;DHT22;4957;51.412;6.724;2023-05-28T06:38:08;19.20;75.00
9837;DHT22;4957;51.412;6.724;2023-05-28T06:40:34;19.30;74.00
9837;DHT22;4957;51.412;6.724;2023-05-28T06:42:59;19.40;73.70
9837;DHT22;4957;51.412;6.724;2023-05-28T06:45:27;19.60;73.20
9837;DHT22;4957;51.412;6.724;2023-05-28T06:47:53;19.70;72.50
9837;DHT22;4957;51.412;6.724;2023-05-28T06:50:18;19.90;71.90
9837;DHT22;4957;51.412;6.724;2023-05-28T06:52:44;20.00;71.40
9837;DHT22;4957;51.412;6.724;2023-05-28T06:55:10;20.30;70.40
9837;DHT22;4957;51.412;6.724;2023-05-28T06:57:36;20.40;69.70
9837;DHT22;4957;51.412;6.724;2023-05-28T07:00:05;20.60;69.20
9837;DHT22;4957;51.412;6.724;2023-05-28T07:02:39;20.80;68.40
9837;DHT22;4957;51.412;6.724;2023-05-28T07:05:04;21.00;67.50
9837;DHT22;4957;51.412;6.724;2023-05-28T07:07:33;21.20;66.80
9837;DHT22;4957;51.412;6.724;2023-05-28T07:09:59;21.40;66.10
9837;DHT22;4957;51.412;6.724;2023-05-28T07:12:24;21.60;65.40
9837;DHT22;4957;51.412;6.724;2023-05-28T07:14:50;21.80;64.80
9837;DHT22;4957;51.412;6.724;2023-05-28T07:17:16;22.00;64.00
9837;DHT22;4957;51.412;6.724;2023-05-28T07:19:41;22.20;63.70
9837;DHT22;4957;51.412;6.724;2023-05-28T07:22:07;22.40;62.00
9837;DHT22;4957;51.412;6.724;2023-05-28T07:24:33;22.60;61.30
9837;DHT22;4957;51.412;6.724;2023-05-28T07:26:58;22.80;60.60
9837;DHT22;4957;51.412;6.724;2023-05-28T07:29:26;22.90;59.70
9837;DHT22;4957;51.412;6.724;2023-05-28T07:31:52;23.10;59.50
9837;DHT22;4957;51.412;6.724;2023-05-28T07:34:18;23.30;59.20
9837;DHT22;4957;51.412;6.724;2023-05-28T07:36:43;23.40;58.70
9837;DHT22;4957;51.412;6.724;2023-05-28T07:39:09;23.60;58.40
9837;DHT22;4957;51.412;6.724;2023-05-28T07:41:38;23.70;57.90
9837;DHT22;4957;51.412;6.724;2023-05-28T07:44:04;23.90;57.30
9837;DHT22;4957;51.412;6.724;2023-05-28T07:46:31;24.10;56.70
9837;DHT22;4957;51.412;6.724;2023-05-28T07:48:57;24.30;55.70
9837;DHT22;4957;51.412;6.724;2023-05-28T07:51:23;24.60;55.00
9837;DHT22;4957;51.412;6.724;2023-05-28T07:53:49;24.80;54.70
9837;DHT22;4957;51.412;6.724;2023-05-28T07:56:14;24.90;54.50
9837;DHT22;4957;51.412;6.724;2023-05-28T07:58:46;25.10;53.70
9837;DHT22;4957;51.412;6.724;2023-05-28T08:01:12;25.30;52.90
9837;DHT22;4957;51.412;6.724;2023-05-28T08:03:37;25.50;52.00
9837;DHT22;4957;51.412;6.724;2023-05-28T08:06:04;25.70;51.20
9837;DHT22;4957;51.412;6.724;2023-05-28T08:08:29;25.90;50.60
9837;DHT22;4957;51.412;6.724;2023-05-28T08:10:55;26.00;50.10
9837;DHT22;4957;51.412;6.724;2023-05-28T08:13:21;26.20;49.50
9837;DHT22;4957;51.412;6.724;2023-05-28T08:15:47;26.40;48.90
9837;DHT22;4957;51.412;6.724;2023-05-28T08:18:13;26.60;48.20
9837;DHT22;4957;51.412;6.724;2023-05-28T08:20:39;26.90;47.60
9837;DHT22;4957;51.412;6.724;2023-05-28T08:23:05;27.10;46.70
9837;DHT22;4957;51.412;6.724;2023-05-28T08:25:32;27.40;46.30
9837;DHT22;4957;51.412;6.724;2023-05-28T08:27:58;27.50;45.60
9837;DHT22;4957;51.412;6.724;2023-05-28T08:30:24;27.80;45.00
9837;DHT22;4957;51.412;6.724;2023-05-28T08:32:50;28.00;44.30
9837;DHT22;4957;51.412;6.724;2023-05-28T08:35:16;28.20;43.70
9837;DHT22;4957;51.412;6.724;2023-05-28T08:37:42;28.40;43.20
9837;DHT22;4957;51.412;6.724;2023-05-28T08:40:08;28.60;42.90
9837;DHT22;4957;51.412;6.724;2023-05-28T08:42:35;28.80;42.50
9837;DHT22;4957;51.412;6.724;2023-05-28T08:45:02;29.00;42.20
9837;DHT22;4957;51.412;6.724;2023-05-28T08:47:32;29.30;41.00
9837;DHT22;4957;51.412;6.724;2023-05-28T08:50:05;29.60;40.10
9837;DHT22;4957;51.412;6.724;2023-05-28T08:52:32;30.20;39.40
9837;DHT22;4957;51.412;6.724;2023-05-28T08:54:58;30.50;39.20
9837;DHT22;4957;51.412;6.724;2023-05-28T08:57:25;30.60;38.90
9837;DHT22;4957;51.412;6.724;2023-05-28T08:59:53;30.80;38.80
9837;DHT22;4957;51.412;6.724;2023-05-28T09:02:23;30.90;38.70
9837;DHT22;4957;51.412;6.724;2023-05-28T09:04:50;31.10;38.10
9837;DHT22;4957;51.412;6.724;2023-05-28T09:07:16;31.20;38.10
9837;DHT22;4957;51.412;6.724;2023-05-28T09:09:42;31.30;37.80
9837;DHT22;4957;51.412;6.724;2023-05-28T09:12:12;31.50;37.40
9837;DHT22;4957;51.412;6.724;2023-05-28T09:14:40;31.70;37.10
9837;DHT22;4957;51.412;6.724;2023-05-28T09:17:07;31.90;36.60
9837;DHT22;4957;51.412;6.724;2023-05-28T09:19:34;32.10;36.70
9837;DHT22;4957;51.412;6.724;2023-05-28T09:22:00;32.20;35.80
9837;DHT22;4957;51.412;6.724;2023-05-28T09:24:29;32.30;35.50
9837;DHT22;4957;51.412;6.724;2023-05-28T09:26:56;32.50;35.50
9837;DHT22;4957;51.412;6.724;2023-05-28T09:29:24;32.70;35.50
9837;DHT22;4957;51.412;6.724;2023-05-28T09:31:57;32.80;35.40
9837;DHT22;4957;51.412;6.724;2023-05-28T09:34:31;33.10;34.20
9837;DHT22;4957;51.412;6.724;2023-05-28T09:37:04;33.30;33.60
9837;DHT22;4957;51.412;6.724;2023-05-28T09:39:30;33.50;33.30
9837;DHT22;4957;51.412;6.724;2023-05-28T09:44:36;33.90;32.90
9837;DHT22;4957;51.412;6.724;2023-05-28T09:47:15;34.00;31.70
9837;DHT22;4957;51.412;6.724;2023-05-28T09:49:44;34.30;31.00
9837;DHT22;4957;51.412;6.724;2023-05-28T09:52:21;34.60;31.40
9837;DHT22;4957;51.412;6.724;2023-05-28T09:54:51;34.70;31.00
9837;DHT22;4957;51.412;6.724;2023-05-28T09:57:26;34.70;30.80
9837;DHT22;4957;51.412;6.724;2023-05-28T09:59:55;34.80;30.70
9837;DHT22;4957;51.412;6.724;2023-05-28T10:02:50;34.90;30.30
9837;DHT22;4957;51.412;6.724;2023-05-28T10:05:19;35.40;29.30
9837;DHT22;4957;51.412;6.724;2023-05-28T10:07:48;35.60;29.90
9837;DHT22;4957;51.412;6.724;2023-05-28T10:10:15;35.70;29.70
9837;DHT22;4957;51.412;6.724;2023-05-28T10:12:42;35.80;30.00
9837;DHT22;4957;51.412;6.724;2023-05-28T10:15:08;35.80;29.80
9837;DHT22;4957;51.412;6.724;2023-05-28T10:17:35;35.90;28.80
9837;DHT22;4957;51.412;6.724;2023-05-28T10:20:01;36.00;28.70
9837;DHT22;4957;51.412;6.724;2023-05-28T10:22:30;36.10;28.70
9837;DHT22;4957;51.412;6.724;2023-05-28T10:24:56;36.20;28.60
9837;DHT22;4957;51.412;6.724;2023-05-28T10:27:29;36.30;28.30
9837;DHT22;4957;51.412;6.724;2023-05-28T10:29:55;36.40;27.80
9837;DHT22;4957;51.412;6.724;2023-05-28T10:32:21;36.50;28.10
9837;DHT22;4957;51.412;6.724;2023-05-28T10:34:47;36.50;27.90
9837;DHT22;4957;51.412;6.724;2023-05-28T10:37:12;36.60;28.10
9837;DHT22;4957;51.412;6.724;2023-05-28T10:39:45;36.70;28.20
9837;DHT22;4957;51.412;6.724;2023-05-28T10:42:15;36.80;27.80
9837;DHT22;4957;51.412;6.724;2023-05-28T10:44:49;37.20;26.60
9837;DHT22;4957;51.412;6.724;2023-05-28T10:47:15;37.50;26.70
9837;DHT22;4957;51.412;6.724;2023-05-28T10:50:19;37.60;26.70
9837;DHT22;4957;51.412;6.724;2023-05-28T10:55:51;38.10;26.20
9837;DHT22;4957;51.412;6.724;2023-05-28T10:58:34;38.10;25.70
9837;DHT22;4957;51.412;6.724;2023-05-28T11:01:20;38.10;25.40
9837;DHT22;4957;51.412;6.724;2023-05-28T11:03:53;38.30;25.50
9837;DHT22;4957;51.412;6.724;2023-05-28T11:06:19;38.20;25.70
9837;DHT22;4957;51.412;6.724;2023-05-28T11:08:48;38.20;25.90
9837;DHT22;4957;51.412;6.724;2023-05-28T11:11:16;38.20;26.10
9837;DHT22;4957;51.412;6.724;2023-05-28T11:13:46;38.20;26.20
9837;DHT22;4957;51.412;6.724;2023-05-28T11:16:14;38.20;25.90
9837;DHT22;4957;51.412;6.724;2023-05-28T11:19:00;38.30;25.50
9837;DHT22;4957;51.412;6.724;2023-05-28T11:21:27;38.40;25.40
9837;DHT22;4957;51.412;6.724;2023-05-28T11:24:03;38.70;25.40
9837;DHT22;4957;51.412;6.724;2023-05-28T11:26:31;38.90;24.60
9837;DHT22;4957;51.412;6.724;2023-05-28T11:28:58;39.10;24.60
9837;DHT22;4957;51.412;6.724;2023-05-28T11:31:24;39.20;24.70
9837;DHT22;4957;51.412;6.724;2023-05-28T11:33:50;39.20;24.60
9837;DHT22;4957;51.412;6.724;2023-05-28T11:36:18;39.30;24.70
9837;DHT22;4957;51.412;6.724;2023-05-28T11:38:44;39.30;24.50
9837;DHT22;4957;51.412;6.724;2023-05-28T11:41:09;39.40;24.60
9837;DHT22;4957;51.412;6.724;2023-05-28T11:43:35;39.40;25.10
9837;DHT22;4957;51.412;6.724;2023-05-28T11:46:04;39.40;24.70
9837;DHT22;4957;51.412;6.724;2023-05-28T11:48:36;39.40;24.60
9837;DHT22;4957;51.412;6.724;2023-05-28T11:51:02;39.40;24.60
9837;DHT22;4957;51.412;6.724;2023-05-28T11:53:44;39.30;24.50
9837;DHT22;4957;51.412;6.724;2023-05-28T11:56:10;39.30;24.10
9837;DHT22;4957;51.412;6.724;2023-05-28T11:58:37;39.20;24.50
9837;DHT22;4957;51.412;6.724;2023-05-28T12:01:06;39.20;24.60
9837;DHT22;4957;51.412;6.724;2023-05-28T12:03:32;39.20;24.90
9837;DHT22;4957;51.412;6.724;2023-05-28T12:05:58;39.20;24.80
9837;DHT22;4957;51.412;6.724;2023-05-28T12:08:26;39.20;25.00
9837;DHT22;4957;51.412;6.724;2023-05-28T12:10:52;39.20;24.20
9837;DHT22;4957;51.412;6.724;2023-05-28T12:13:17;39.20;24.40
9837;DHT22;4957;51.412;6.724;2023-05-28T12:15:43;39.20;24.50
9837;DHT22;4957;51.412;6.724;2023-05-28T12:18:09;39.40;24.40
9837;DHT22;4957;51.412;6.724;2023-05-28T12:20:41;39.40;24.40
9837;DHT22;4957;51.412;6.724;2023-05-28T12:23:11;39.40;24.00
9837;DHT22;4957;51.412;6.724;2023-05-28T12:28:15;39.50;24.30
9837;DHT22;4957;51.412;6.724;2023-05-28T12:30:43;39.70;23.40
9837;DHT22;4957;51.412;6.724;2023-05-28T12:33:10;39.90;23.80
9837;DHT22;4957;51.412;6.724;2023-05-28T12:35:36;40.00;24.10
9837;DHT22;4957;51.412;6.724;2023-05-28T12:38:01;39.90;23.80
9837;DHT22;4957;51.412;6.724;2023-05-28T12:40:28;39.90;23.90
9837;DHT22;4957;51.412;6.724;2023-05-28T12:42:53;39.70;24.20
9837;DHT22;4957;51.412;6.724;2023-05-28T12:45:19;39.60;24.40
9837;DHT22;4957;51.412;6.724;2023-05-28T12:47:45;39.60;24.40
9837;DHT22;4957;51.412;6.724;2023-05-28T12:50:11;39.50;24.50
9837;DHT22;4957;51.412;6.724;2023-05-28T12:52:36;39.50;24.70
9837;DHT22;4957;51.412;6.724;2023-05-28T12:55:02;39.40;24.60
9837;DHT22;4957;51.412;6.724;2023-05-28T12:57:28;39.40;24.50
9837;DHT22;4957;51.412;6.724;2023-05-28T12:59:56;39.40;24.40
9837;DHT22;4957;51.412;6.724;2023-05-28T13:02:22;39.40;24.60
9837;DHT22;4957;51.412;6.724;2023-05-28T13:04:48;39.40;24.60
9837;DHT22;4957;51.412;6.724;2023-05-28T13:07:13;39.30;25.00
9837;DHT22;4957;51.412;6.724;2023-05-28T13:09:39;39.20;24.80
9837;DHT22;4957;51.412;6.724;2023-05-28T13:12:05;39.10;24.90
9837;DHT22;4957;51.412;6.724;2023-05-28T13:14:31;39.00;25.00
9837;DHT22;4957;51.412;6.724;2023-05-28T13:16:57;38.90;25.00
9837;DHT22;4957;51.412;6.724;2023-05-28T13:19:26;38.80;25.00
9837;DHT22;4957;51.412;6.724;2023-05-28T13:21:53;38.70;24.80
9837;DHT22;4957;51.412;6.724;2023-05-28T13:24:18;38.60;25.00
9837;DHT22;4957;51.412;6.724;2023-05-28T13:26:44;38.50;25.10
9837;DHT22;4957;51.412;6.724;2023-05-28T13:29:10;38.40;24.90
9837;DHT22;4957;51.412;6.724;2023-05-28T13:31:36;38.40;24.80
9837;DHT22;4957;51.412;6.724;2023-05-28T13:34:03;38.20;25.20
9837;DHT22;4957;51.412;6.724;2023-05-28T13:36:30;38.10;25.40
9837;DHT22;4957;51.412;6.724;2023-05-28T13:38:56;37.90;25.50
9837;DHT22;4957;51.412;6.724;2023-05-28T13:41:23;37.80;25.50
9837;DHT22;4957;51.412;6.724;2023-05-28T13:43:51;37.70;25.30
9837;DHT22;4957;51.412;6.724;2023-05-28T13:46:23;37.60;25.80
9837;DHT22;4957;51.412;6.724;2023-05-28T13:48:53;37.50;26.00
9837;DHT22;4957;51.412;6.724;2023-05-28T13:51:19;37.40;25.80
9837;DHT22;4957;51.412;6.724;2023-05-28T13:53:46;37.30;26.20
9837;DHT22;4957;51.412;6.724;2023-05-28T13:56:13;37.20;26.00
9837;DHT22;4957;51.412;6.724;2023-05-28T13:58:38;37.10;26.00
9837;DHT22;4957;51.412;6.724;2023-05-28T14:01:04;36.90;26.10
9837;DHT22;4957;51.412;6.724;2023-05-28T14:03:30;36.80;26.50
9837;DHT22;4957;51.412;6.724;2023-05-28T14:05:56;36.70;26.70
9837;DHT22;4957;51.412;6.724;2023-05-28T14:08:22;36.50;26.10
9837;DHT22;4957;51.412;6.724;2023-05-28T14:10:48;36.50;26.30
9837;DHT22;4957;51.412;6.724;2023-05-28T14:13:14;36.30;26.50
9837;DHT22;4957;51.412;6.724;2023-05-28T14:15:40;36.30;26.60
9837;DHT22;4957;51.412;6.724;2023-05-28T14:18:05;36.20;26.50
9837;DHT22;4957;51.412;6.724;2023-05-28T14:20:32;36.20;26.70
9837;DHT22;4957;51.412;6.724;2023-05-28T14:23:04;36.10;26.60
9837;DHT22;4957;51.412;6.724;2023-05-28T14:25:30;36.10;26.50
9837;DHT22;4957;51.412;6.724;2023-05-28T14:27:56;36.00;27.10
9837;DHT22;4957;51.412;6.724;2023-05-28T14:30:23;36.00;27.20
9837;DHT22;4957;51.412;6.724;2023-05-28T14:32:48;35.90;26.90
9837;DHT22;4957;51.412;6.724;2023-05-28T14:35:14;35.80;26.90
9837;DHT22;4957;51.412;6.724;2023-05-28T14:37:40;35.70;26.90
9837;DHT22;4957;51.412;6.724;2023-05-28T14:40:06;35.50;27.10
9837;DHT22;4957;51.412;6.724;2023-05-28T14:42:32;35.50;27.20
9837;DHT22;4957;51.412;6.724;2023-05-28T14:44:58;35.40;27.60
9837;DHT22;4957;51.412;6.724;2023-05-28T14:47:23;35.30;27.60
9837;DHT22;4957;51.412;6.724;2023-05-28T14:49:49;35.30;27.70
9837;DHT22;4957;51.412;6.724;2023-05-28T14:52:29;35.30;28.10
9837;DHT22;4957;51.412;6.724;2023-05-28T14:54:56;35.30;27.90
9837;DHT22;4957;51.412;6.724;2023-05-28T14:57:27;35.20;28.30
9837;DHT22;4957;51.412;6.724;2023-05-28T14:59:58;35.10;28.30
9837;DHT22;4957;51.412;6.724;2023-05-28T15:02:23;35.00;28.20
9837;DHT22;4957;51.412;6.724;2023-05-28T15:04:49;35.00;28.30
9837;DHT22;4957;51.412;6.724;2023-05-28T15:07:15;34.90;28.20
9837;DHT22;4957;51.412;6.724;2023-05-28T15:09:41;34.80;28.20
9837;DHT22;4957;51.412;6.724;2023-05-28T15:12:06;34.60;28.50
9837;DHT22;4957;51.412;6.724;2023-05-28T15:14:33;34.60;28.70
9837;DHT22;4957;51.412;6.724;2023-05-28T15:16:59;34.50;29.00
9837;DHT22;4957;51.412;6.724;2023-05-28T15:19:25;34.50;28.30
9837;DHT22;4957;51.412;6.724;2023-05-28T15:21:51;34.40;28.40
9837;DHT22;4957;51.412;6.724;2023-05-28T15:24:17;34.30;28.60
9837;DHT22;4957;51.412;6.724;2023-05-28T15:26:44;34.20;28.80
9837;DHT22;4957;51.412;6.724;2023-05-28T15:29:12;34.10;28.90
9837;DHT22;4957;51.412;6.724;2023-05-28T15:31:37;34.10;28.70
9837;DHT22;4957;51.412;6.724;2023-05-28T15:34:05;34.00;28.90
9837;DHT22;4957;51.412;6.724;2023-05-28T15:36:31;34.00;29.20
9837;DHT22;4957;51.412;6.724;2023-05-28T15:38:58;33.90;28.90
9837;DHT22;4957;51.412;6.724;2023-05-28T15:41:24;33.90;28.90
9837;DHT22;4957;51.412;6.724;2023-05-28T15:43:51;33.90;29.20
9837;DHT22;4957;51.412;6.724;2023-05-28T15:46:19;33.80;28.90
9837;DHT22;4957;51.412;6.724;2023-05-28T15:48:45;33.60;29.40
9837;DHT22;4957;51.412;6.724;2023-05-28T15:51:11;33.60;29.40
9837;DHT22;4957;51.412;6.724;2023-05-28T15:53:38;33.60;29.50
9837;DHT22;4957;51.412;6.724;2023-05-28T15:56:04;33.60;29.30
9837;DHT22;4957;51.412;6.724;2023-05-28T15:58:30;33.50;29.40
9837;DHT22;4957;51.412;6.724;2023-05-28T16:00:56;33.50;29.40
9837;DHT22;4957;51.412;6.724;2023-05-28T16:03:22;33.40;29.80
9837;DHT22;4957;51.412;6.724;2023-05-28T16:05:47;33.40;29.60
9837;DHT22;4957;51.412;6.724;2023-05-28T16:08:13;33.50;29.70